sensor_id;sensor_type;location;lat;lon;timestamp;pressure;altitude;pressure_sealevel;temperature;humidity
43711;BME280;29309;42.682;23.372;2022-12-31T00:01:14;96237.94;;;4.96;83.54
43711;BME280;29309;42.682;23.372;2022-12-31T00:03:40;96232.44;;;4.96;83.28
43711;BME280;29309;42.682;23.372;2022-12-31T00:06:20;96227.16;;;4.90;83.41
43711;BME280;29309;42.682;23.372;2022-12-31T00:08:47;96231.19;;;4.89;83.27
43711;BME280;29309;42.682;23.372;2022-12-31T00:11:13;96223.13;;;4.91;83.18
43711;BME280;29309;42.682;23.372;2022-12-31T00:13:39;96228.06;;;4.93;82.71
43711;BME280;29309;42.682;23.372;2022-12-31T00:16:13;96226.97;;;4.88;82.81
43711;BME280;29309;42.682;23.372;2022-12-31T00:18:42;96218.38;;;4.84;82.72
43711;BME280;29309;42.682;23.372;2022-12-31T00:21:08;96224.97;;;4.81;82.59
43711;BME280;29309;42.682;23.372;2022-12-31T00:23:35;96227.19;;;4.83;82.82
43711;BME280;29309;42.682;23.372;2022-12-31T00:26:09;96232.84;;;4.85;82.44
43711;BME280;29309;42.682;23.372;2022-12-31T00:28:35;96236.53;;;4.87;82.09
43711;BME280;29309;42.682;23.372;2022-12-31T00:31:16;96240.38;;;4.84;81.74
43711;BME280;29309;42.682;23.372;2022-12-31T00:33:42;96242.41;;;4.84;81.87
43711;BME280;29309;42.682;23.372;2022-12-31T00:38:42;96251.41;;;4.77;80.96
43711;BME280;29309;42.682;23.372;2022-12-31T00:41:07;96260.94;;;4.76;81.41
43711;BME280;29309;42.682;23.372;2022-12-31T00:43:33;96270.84;;;4.79;81.49
43711;BME280;29309;42.682;23.372;2022-12-31T00:46:00;96270.84;;;4.79;81.20
43711;BME280;29309;42.682;23.372;2022-12-31T00:48:26;96267.56;;;4.73;80.99
43711;BME280;29309;42.682;23.372;2022-12-31T00:50:52;96267.56;;;4.73;81.35
43711;BME280;29309;42.682;23.372;2022-12-31T00:53:17;96265.72;;;4.75;81.50
43711;BME280;29309;42.682;23.372;2022-12-31T00:55:43;96260.41;;;4.77;81.21
43711;BME280;29309;42.682;23.372;2022-12-31T00:58:08;96271.94;;;4.76;81.17
43711;BME280;29309;42.682;23.372;2022-12-31T01:00:35;96270.84;;;4.79;81.34
43711;BME280;29309;42.682;23.372;2022-12-31T01:03:00;96269.03;;;4.74;80.80
43711;BME280;29309;42.682;23.372;2022-12-31T01:05:26;96281.09;;;4.71;80.52
43711;BME280;29309;42.682;23.372;2022-12-31T01:07:51;96280.22;;;4.68;80.72
43711;BME280;29309;42.682;23.372;2022-12-31T01:10:17;96274.88;;;4.70;80.63
43711;BME280;29309;42.682;23.372;2022-12-31T01:13:02;96282.97;;;4.68;80.44
43711;BME280;29309;42.682;23.372;2022-12-31T01:15:32;96295.44;;;4.69;80.52
43711;BME280;29309;42.682;23.372;2022-12-31T01:17:58;96280.41;;;4.63;80.55
43711;BME280;29309;42.682;23.372;2022-12-31T01:20:23;96279.47;;;4.60;80.45
43711;BME280;29309;42.682;23.372;2022-12-31T01:22:48;96282.06;;;4.58;80.94
43711;BME280;29309;42.682;23.372;2022-12-31T01:25:14;96279.50;;;4.53;80.95
43711;BME280;29309;42.682;23.372;2022-12-31T01:27:39;96281.69;;;4.46;81.24
43711;BME280;29309;42.682;23.372;2022-12-31T01:30:05;96278.97;;;4.46;81.89
43711;BME280;29309;42.682;23.372;2022-12-31T01:32:31;96275.84;;;4.42;82.12
43711;BME280;29309;42.682;23.372;2022-12-31T01:34:57;96284.81;;;4.43;82.09
43711;BME280;29309;42.682;23.372;2022-12-31T01:37:22;96281.69;;;4.46;82.46
43711;BME280;29309;42.682;23.372;2022-12-31T01:39:47;96274.56;;;4.51;82.26
43711;BME280;29309;42.682;23.372;2022-12-31T01:42:13;96273.81;;;4.51;82.14
43711;BME280;29309;42.682;23.372;2022-12-31T01:47:11;96288.47;;;4.45;82.21
43711;BME280;29309;42.682;23.372;2022-12-31T01:49:56;96290.50;;;4.45;82.46
43711;BME280;29309;42.682;23.372;2022-12-31T01:52:28;96295.28;;;4.44;82.59
43711;BME280;29309;42.682;23.372;2022-12-31T01:55:08;96288.13;;;4.41;82.90
43711;BME280;29309;42.682;23.372;2022-12-31T01:57:37;96290.88;;;4.41;82.96
43711;BME280;29309;42.682;23.372;2022-12-31T02:00:04;96282.06;;;4.43;82.88
43711;BME280;29309;42.682;23.372;2022-12-31T02:02:30;96297.84;;;4.42;82.83
43711;BME280;29309;42.682;23.372;2022-12-31T02:04:57;96288.13;;;4.34;83.29
43711;BME280;29309;42.682;23.372;2022-12-31T02:07:25;96287.41;;;4.33;83.27
43711;BME280;29309;42.682;23.372;2022-12-31T02:09:51;96295.28;;;4.29;83.81
43711;BME280;29309;42.682;23.372;2022-12-31T02:12:18;96292.16;;;4.33;83.66
43711;BME280;29309;42.682;23.372;2022-12-31T02:14:47;96296.75;;;4.30;84.09
43711;BME280;29309;42.682;23.372;2022-12-31T02:25:51;96291.97;;;4.46;83.53
43711;BME280;29309;42.682;23.372;2022-12-31T02:31:11;96300.41;;;4.48;83.46
43711;BME280;29309;42.682;23.372;2022-12-31T02:34:06;96308.09;;;4.50;83.45
43711;BME280;29309;42.682;23.372;2022-12-31T02:36:37;96311.56;;;4.50;83.47
43711;BME280;29309;42.682;23.372;2022-12-31T02:39:05;96313.22;;;4.53;83.54
43711;BME280;29309;42.682;23.372;2022-12-31T02:41:31;96311.41;;;4.56;83.22
43711;BME280;29309;42.682;23.372;2022-12-31T02:44:33;96321.31;;;4.59;83.28
43711;BME280;29309;42.682;23.372;2022-12-31T02:53:02;96316.88;;;4.63;82.83
43711;BME280;29309;42.682;23.372;2022-12-31T02:55:38;96318.19;;;4.62;82.86
43711;BME280;29309;42.682;23.372;2022-12-31T03:01:17;96313.59;;;4.57;82.67
43711;BME280;29309;42.682;23.372;2022-12-31T03:04:03;96320.56;;;4.58;82.58
43711;BME280;29309;42.682;23.372;2022-12-31T03:06:48;96312.31;;;4.58;82.48
43711;BME280;29309;42.682;23.372;2022-12-31T03:09:14;96314.88;;;4.56;82.61
43711;BME280;29309;42.682;23.372;2022-12-31T03:11:39;96318.34;;;4.57;82.85
43711;BME280;29309;42.682;23.372;2022-12-31T03:14:23;96314.16;;;4.56;82.56
43711;BME280;29309;42.682;23.372;2022-12-31T03:16:49;96315.22;;;4.53;82.86
43711;BME280;29309;42.682;23.372;2022-12-31T03:19:14;96304.81;;;4.51;82.61
43711;BME280;29309;42.682;23.372;2022-12-31T03:22:00;96307.34;;;4.41;82.63
43711;BME280;29309;42.682;23.372;2022-12-31T03:24:44;96311.78;;;4.37;82.61
43711;BME280;29309;42.682;23.372;2022-12-31T03:27:28;96305.91;;;4.33;82.99
43711;BME280;29309;42.682;23.372;2022-12-31T03:29:53;96310.31;;;4.28;82.85
43711;BME280;29309;42.682;23.372;2022-12-31T03:32:18;96311.56;;;4.27;82.96
43711;BME280;29309;42.682;23.372;2022-12-31T03:34:44;96302.06;;;4.21;83.02
43711;BME280;29309;42.682;23.372;2022-12-31T03:37:09;96315.06;;;4.20;82.89
43711;BME280;29309;42.682;23.372;2022-12-31T03:39:34;96313.59;;;4.19;82.59
43711;BME280;29309;42.682;23.372;2022-12-31T03:42:00;96311.22;;;4.16;83.24
43711;BME280;29309;42.682;23.372;2022-12-31T03:44:25;96310.50;;;4.15;83.33
43711;BME280;29309;42.682;23.372;2022-12-31T03:46:51;96309.56;;;4.13;82.97
43711;BME280;29309;42.682;23.372;2022-12-31T03:49:16;96307.72;;;4.08;82.76
43711;BME280;29309;42.682;23.372;2022-12-31T03:51:41;96312.50;;;4.07;82.99
43711;BME280;29309;42.682;23.372;2022-12-31T03:54:07;96316.50;;;4.06;82.88
43711;BME280;29309;42.682;23.372;2022-12-31T03:56:32;96328.81;;;4.05;83.09
43711;BME280;29309;42.682;23.372;2022-12-31T03:58:58;96317.63;;;4.03;83.15
43711;BME280;29309;42.682;23.372;2022-12-31T04:01:23;96320.19;;;4.01;83.42
43711;BME280;29309;42.682;23.372;2022-12-31T04:03:49;96317.25;;;3.99;83.66
43711;BME280;29309;42.682;23.372;2022-12-31T04:06:15;96324.00;;;3.98;83.58
43711;BME280;29309;42.682;23.372;2022-12-31T04:08:40;96321.09;;;3.96;83.71
43711;BME280;29309;42.682;23.372;2022-12-31T04:11:05;96327.84;;;3.95;83.69
43711;BME280;29309;42.682;23.372;2022-12-31T04:13:31;96326.03;;;3.90;83.72
43711;BME280;29309;42.682;23.372;2022-12-31T04:15:56;96327.31;;;3.89;83.95
43711;BME280;29309;42.682;23.372;2022-12-31T04:18:22;96331.88;;;3.86;83.41
43711;BME280;29309;42.682;23.372;2022-12-31T04:20:47;96329.28;;;3.81;83.74
43711;BME280;29309;42.682;23.372;2022-12-31T04:23:12;96329.47;;;3.75;83.51
43711;BME280;29309;42.682;23.372;2022-12-31T04:25:38;96333.84;;;3.71;83.40
43711;BME280;29309;42.682;23.372;2022-12-31T04:28:03;96333.66;;;3.69;83.69
43711;BME280;29309;42.682;23.372;2022-12-31T04:30:29;96336.94;;;3.67;84.03
43711;BME280;29309;42.682;23.372;2022-12-31T04:32:54;96345.38;;;3.62;84.33
43711;BME280;29309;42.682;23.372;2022-12-31T04:35:19;96335.06;;;3.55;84.33
43711;BME280;29309;42.682;23.372;2022-12-31T04:37:45;96347.34;;;3.54;84.59
43711;BME280;29309;42.682;23.372;2022-12-31T04:40:10;96347.88;;;3.52;84.36
43711;BME280;29309;42.682;23.372;2022-12-31T04:42:36;96351.53;;;3.47;84.36
43711;BME280;29309;42.682;23.372;2022-12-31T04:45:02;96355.34;;;3.44;84.36
43711;BME280;29309;42.682;23.372;2022-12-31T04:47:28;96354.44;;;3.41;84.40
43711;BME280;29309;42.682;23.372;2022-12-31T04:49:53;96355.31;;;3.36;84.55
43711;BME280;29309;42.682;23.372;2022-12-31T04:52:19;96355.88;;;3.35;84.65
43711;BME280;29309;42.682;23.372;2022-12-31T04:54:44;96363.19;;;3.32;84.42
43711;BME280;29309;42.682;23.372;2022-12-31T04:57:10;96356.22;;;3.31;84.42
43711;BME280;29309;42.682;23.372;2022-12-31T04:59:35;96354.56;;;3.28;84.65
43711;BME280;29309;42.682;23.372;2022-12-31T05:02:00;96366.81;;;3.27;84.99
43711;BME280;29309;42.682;23.372;2022-12-31T05:04:26;96372.81;;;3.26;84.63
43711;BME280;29309;42.682;23.372;2022-12-31T05:06:51;96374.13;;;3.25;84.59
43711;BME280;29309;42.682;23.372;2022-12-31T05:09:17;96376.13;;;3.24;84.98
43711;BME280;29309;42.682;23.372;2022-12-31T05:11:43;96375.72;;;3.20;85.19
43711;BME280;29309;42.682;23.372;2022-12-31T05:14:09;96389.06;;;3.16;84.54
43711;BME280;29309;42.682;23.372;2022-12-31T05:16:34;96388.50;;;3.10;84.78
43711;BME280;29309;42.682;23.372;2022-12-31T05:19:00;96388.84;;;3.07;85.09
43711;BME280;29309;42.682;23.372;2022-12-31T05:21:25;96400.53;;;3.07;85.18
43711;BME280;29309;42.682;23.372;2022-12-31T05:23:51;96397.59;;;3.05;84.92
43711;BME280;29309;42.682;23.372;2022-12-31T05:26:17;96402.09;;;2.95;85.20
43711;BME280;29309;42.682;23.372;2022-12-31T05:28:42;96406.09;;;2.94;85.87
43711;BME280;29309;42.682;23.372;2022-12-31T05:31:08;96411.13;;;2.82;86.19
43711;BME280;29309;42.682;23.372;2022-12-31T05:33:33;96412.97;;;2.80;86.82
43711;BME280;29309;42.682;23.372;2022-12-31T05:35:58;96408.88;;;2.73;86.52
43711;BME280;29309;42.682;23.372;2022-12-31T05:38:24;96406.81;;;2.66;87.05
43711;BME280;29309;42.682;23.372;2022-12-31T05:40:58;96412.09;;;2.64;87.14
43711;BME280;29309;42.682;23.372;2022-12-31T05:43:24;96402.59;;;2.65;87.53
43711;BME280;29309;42.682;23.372;2022-12-31T05:45:49;96409.56;;;2.66;87.78
43711;BME280;29309;42.682;23.372;2022-12-31T05:48:15;96405.91;;;2.64;88.07
43711;BME280;29309;42.682;23.372;2022-12-31T05:50:40;96413.16;;;2.61;87.62
43711;BME280;29309;42.682;23.372;2022-12-31T05:53:05;96411.16;;;2.62;88.01
43711;BME280;29309;42.682;23.372;2022-12-31T05:55:31;96410.66;;;2.63;88.36
43711;BME280;29309;42.682;23.372;2022-12-31T05:57:56;96412.25;;;2.59;87.83
43711;BME280;29309;42.682;23.372;2022-12-31T06:00:22;96411.16;;;2.62;87.84
43711;BME280;29309;42.682;23.372;2022-12-31T06:02:47;96412.44;;;2.61;88.46
43711;BME280;29309;42.682;23.372;2022-12-31T06:05:12;96414.84;;;2.64;88.53
43711;BME280;29309;42.682;23.372;2022-12-31T06:07:38;96419.78;;;2.66;88.44
43711;BME280;29309;42.682;23.372;2022-12-31T06:10:04;96425.69;;;2.70;88.67
43711;BME280;29309;42.682;23.372;2022-12-31T06:12:29;96419.13;;;2.73;88.64
43711;BME280;29309;42.682;23.372;2022-12-31T06:14:55;96423.19;;;2.79;88.42
43711;BME280;29309;42.682;23.372;2022-12-31T06:17:20;96423.25;;;2.87;88.27
43711;BME280;29309;42.682;23.372;2022-12-31T06:19:46;96423.31;;;2.94;88.14
43711;BME280;29309;42.682;23.372;2022-12-31T06:22:12;96420.47;;;3.08;88.20
43711;BME280;29309;42.682;23.372;2022-12-31T06:24:37;96423.66;;;3.19;87.96
43711;BME280;29309;42.682;23.372;2022-12-31T06:27:03;96431.97;;;3.34;87.96
43711;BME280;29309;42.682;23.372;2022-12-31T06:29:28;96435.00;;;3.52;87.08
43711;BME280;29309;42.682;23.372;2022-12-31T06:31:54;96431.06;;;3.68;86.94
43711;BME280;29309;42.682;23.372;2022-12-31T06:34:19;96436.25;;;3.86;85.81
43711;BME280;29309;42.682;23.372;2022-12-31T06:36:45;96444.00;;;4.03;85.26
43711;BME280;29309;42.682;23.372;2022-12-31T06:39:10;96449.94;;;4.22;84.43
43711;BME280;29309;42.682;23.372;2022-12-31T06:41:35;96451.25;;;4.44;83.85
43711;BME280;29309;42.682;23.372;2022-12-31T06:44:01;96456.59;;;4.65;82.79
43711;BME280;29309;42.682;23.372;2022-12-31T06:46:27;96463.94;;;4.85;82.28
43711;BME280;29309;42.682;23.372;2022-12-31T06:48:52;96460.28;;;5.05;81.54
43711;BME280;29309;42.682;23.372;2022-12-31T06:51:20;96471.44;;;5.30;80.32
43711;BME280;29309;42.682;23.372;2022-12-31T06:53:47;96475.81;;;5.56;78.70
43711;BME280;29309;42.682;23.372;2022-12-31T06:56:16;96489.53;;;5.78;78.25
43711;BME280;29309;42.682;23.372;2022-12-31T06:58:43;96483.63;;;5.97;77.23
43711;BME280;29309;42.682;23.372;2022-12-31T07:01:27;96493.81;;;6.19;75.93
43711;BME280;29309;42.682;23.372;2022-12-31T07:06:50;96493.56;;;6.72;73.74
43711;BME280;29309;42.682;23.372;2022-12-31T07:14:36;96491.22;;;7.35;70.81
43711;BME280;29309;42.682;23.372;2022-12-31T07:17:34;96494.28;;;7.64;69.65
43711;BME280;29309;42.682;23.372;2022-12-31T07:20:15;96495.53;;;7.88;68.76
43711;BME280;29309;42.682;23.372;2022-12-31T07:22:41;96498.59;;;8.09;67.36
43711;BME280;29309;42.682;23.372;2022-12-31T07:25:12;96502.44;;;8.31;66.76
43711;BME280;29309;42.682;23.372;2022-12-31T07:28:14;96505.81;;;8.56;65.73
43711;BME280;29309;42.682;23.372;2022-12-31T07:39:07;96501.94;;;9.42;62.95
43711;BME280;29309;42.682;23.372;2022-12-31T07:41:40;96512.03;;;9.56;62.30
43711;BME280;29309;42.682;23.372;2022-12-31T07:47:01;96517.06;;;9.86;61.30
43711;BME280;29309;42.682;23.372;2022-12-31T07:49:29;96520.56;;;10.06;60.37
43711;BME280;29309;42.682;23.372;2022-12-31T07:51:55;96526.91;;;10.16;59.99
43711;BME280;29309;42.682;23.372;2022-12-31T07:54:20;96527.19;;;10.30;59.24
43711;BME280;29309;42.682;23.372;2022-12-31T07:56:47;96524.69;;;10.44;59.64
43711;BME280;29309;42.682;23.372;2022-12-31T08:04:53;96529.63;;;10.74;58.03
43711;BME280;29309;42.682;23.372;2022-12-31T08:13:02;96521.44;;;10.57;58.07
43711;BME280;29309;42.682;23.372;2022-12-31T08:15:29;96521.03;;;10.41;58.71
43711;BME280;29309;42.682;23.372;2022-12-31T08:17:55;96527.19;;;10.30;58.52
43711;BME280;29309;42.682;23.372;2022-12-31T08:20:20;96516.91;;;10.13;59.26
43711;BME280;29309;42.682;23.372;2022-12-31T08:28:37;96508.25;;;9.61;60.90
43711;BME280;29309;42.682;23.372;2022-12-31T08:31:18;96519.41;;;9.34;63.02
43711;BME280;29309;42.682;23.372;2022-12-31T08:36:59;96520.81;;;9.16;63.13
43711;BME280;29309;42.682;23.372;2022-12-31T08:43:19;96531.63;;;8.85;64.87
43711;BME280;29309;42.682;23.372;2022-12-31T08:45:38;96532.34;;;8.86;64.40
43711;BME280;29309;42.682;23.372;2022-12-31T08:50:44;96522.13;;;8.62;64.93
43711;BME280;29309;42.682;23.372;2022-12-31T08:53:10;96522.41;;;8.56;65.46
43711;BME280;29309;42.682;23.372;2022-12-31T08:55:36;96505.31;;;8.50;65.55
43711;BME280;29309;42.682;23.372;2022-12-31T09:00:45;96508.19;;;8.43;65.91
43711;BME280;29309;42.682;23.372;2022-12-31T09:11:12;96504.66;;;8.25;68.29
43711;BME280;29309;42.682;23.372;2022-12-31T09:18:53;96514.28;;;8.24;67.85
43711;BME280;29309;42.682;23.372;2022-12-31T09:21:19;96507.84;;;8.21;68.00
43711;BME280;29309;42.682;23.372;2022-12-31T09:23:45;96500.56;;;8.16;68.98
43711;BME280;29309;42.682;23.372;2022-12-31T09:29:03;96496.78;;;8.21;69.36
43711;BME280;29309;42.682;23.372;2022-12-31T09:31:48;96494.03;;;8.21;69.51
43711;BME280;29309;42.682;23.372;2022-12-31T09:34:24;96490.84;;;8.25;69.75
43711;BME280;29309;42.682;23.372;2022-12-31T09:36:58;96479.94;;;8.27;69.48
43711;BME280;29309;42.682;23.372;2022-12-31T09:42:41;96468.22;;;8.36;68.68
43711;BME280;29309;42.682;23.372;2022-12-31T09:50:41;96452.22;;;8.34;69.48
43711;BME280;29309;42.682;23.372;2022-12-31T09:55:44;96449.19;;;8.40;68.83
43711;BME280;29309;42.682;23.372;2022-12-31T09:58:31;96441.16;;;8.34;68.93
43711;BME280;29309;42.682;23.372;2022-12-31T10:04:28;96442.63;;;8.35;67.99
43711;BME280;29309;42.682;23.372;2022-12-31T10:12:53;96438.84;;;8.40;68.47
43711;BME280;29309;42.682;23.372;2022-12-31T10:42:22;96402.97;;;11.11;58.69
43711;BME280;29309;42.682;23.372;2022-12-31T10:59:21;96381.38;;;12.06;55.39
43711;BME280;29309;42.682;23.372;2022-12-31T11:02:18;96393.75;;;12.26;55.20
43711;BME280;29309;42.682;23.372;2022-12-31T11:19:23;96375.75;;;13.32;52.24
43711;BME280;29309;42.682;23.372;2022-12-31T11:22:25;96373.78;;;13.46;51.65
43711;BME280;29309;42.682;23.372;2022-12-31T11:38:41;96365.34;;;13.69;49.89
43711;BME280;29309;42.682;23.372;2022-12-31T11:41:32;96359.88;;;13.71;51.85
43711;BME280;29309;42.682;23.372;2022-12-31T11:53:10;96345.31;;;14.23;48.93
43711;BME280;29309;42.682;23.372;2022-12-31T11:56:08;96352.44;;;14.52;48.58
43711;BME280;29309;42.682;23.372;2022-12-31T11:58:30;96352.38;;;14.77;47.65
43711;BME280;29309;42.682;23.372;2022-12-31T12:01:05;96337.56;;;15.02;47.39
43711;BME280;29309;42.682;23.372;2022-12-31T12:03:36;96347.72;;;15.22;46.50
43711;BME280;29309;42.682;23.372;2022-12-31T12:06:10;96346.38;;;15.37;46.12
43711;BME280;29309;42.682;23.372;2022-12-31T12:08:36;96355.16;;;15.45;44.83
43711;BME280;29309;42.682;23.372;2022-12-31T12:11:05;96350.09;;;15.55;45.24
43711;BME280;29309;42.682;23.372;2022-12-31T12:13:31;96355.75;;;15.71;44.99
43711;BME280;29309;42.682;23.372;2022-12-31T12:15:59;96353.53;;;15.83;43.89
43711;BME280;29309;42.682;23.372;2022-12-31T12:23:35;96357.16;;;16.15;43.36
43711;BME280;29309;42.682;23.372;2022-12-31T12:26:01;96354.22;;;16.42;43.04
43711;BME280;29309;42.682;23.372;2022-12-31T12:28:29;96354.28;;;16.73;43.41
43711;BME280;29309;42.682;23.372;2022-12-31T12:31:01;96351.72;;;16.95;41.62
43711;BME280;29309;42.682;23.372;2022-12-31T12:33:30;96359.59;;;17.14;41.83
43711;BME280;29309;42.682;23.372;2022-12-31T12:36:09;96350.84;;;17.40;41.01
43711;BME280;29309;42.682;23.372;2022-12-31T12:38:36;96351.88;;;17.64;40.33
43711;BME280;29309;42.682;23.372;2022-12-31T12:41:05;96354.69;;;17.82;39.66
43711;BME280;29309;42.682;23.372;2022-12-31T12:43:33;96348.19;;;17.95;39.78
43711;BME280;29309;42.682;23.372;2022-12-31T12:48:55;96358.63;;;18.28;38.70
43711;BME280;29309;42.682;23.372;2022-12-31T12:54:27;96350.19;;;18.10;39.23
43711;BME280;29309;42.682;23.372;2022-12-31T12:59:45;96350.00;;;16.72;41.51
43711;BME280;29309;42.682;23.372;2022-12-31T13:19:01;96364.88;;;13.73;49.02
43711;BME280;29309;42.682;23.372;2022-12-31T13:29:46;96372.03;;;12.93;52.10
43711;BME280;29309;42.682;23.372;2022-12-31T13:32:17;96379.66;;;12.80;52.98
43711;BME280;29309;42.682;23.372;2022-12-31T13:34:46;96381.09;;;12.70;53.25
43711;BME280;29309;42.682;23.372;2022-12-31T13:37:38;96380.50;;;12.60;53.61
43711;BME280;29309;42.682;23.372;2022-12-31T13:40:16;96382.78;;;12.52;53.82
43711;BME280;29309;42.682;23.372;2022-12-31T13:43:52;96376.00;;;12.43;53.96
43711;BME280;29309;42.682;23.372;2022-12-31T13:48:53;96380.94;;;12.21;54.81
43711;BME280;29309;42.682;23.372;2022-12-31T13:51:44;96384.78;;;12.16;55.78
43711;BME280;29309;42.682;23.372;2022-12-31T13:56:51;96384.41;;;12.10;55.72
43711;BME280;29309;42.682;23.372;2022-12-31T13:59:35;96378.31;;;12.02;55.65
43711;BME280;29309;42.682;23.372;2022-12-31T14:05:13;96389.06;;;11.96;56.45
43711;BME280;29309;42.682;23.372;2022-12-31T14:07:50;96397.16;;;11.92;56.41
43711;BME280;29309;42.682;23.372;2022-12-31T14:10:23;96388.22;;;11.94;56.55
43711;BME280;29309;42.682;23.372;2022-12-31T14:13:03;96384.56;;;11.91;56.78
43711;BME280;29309;42.682;23.372;2022-12-31T14:15:40;96393.75;;;11.82;57.22
43711;BME280;29309;42.682;23.372;2022-12-31T14:18:22;96390.09;;;11.79;57.24
43711;BME280;29309;42.682;23.372;2022-12-31T14:25:58;96395.28;;;11.73;57.77
43711;BME280;29309;42.682;23.372;2022-12-31T14:28:32;96381.81;;;11.70;57.81
43711;BME280;29309;42.682;23.372;2022-12-31T14:36:58;96377.56;;;11.69;57.50
43711;BME280;29309;42.682;23.372;2022-12-31T14:45:50;96386.09;;;11.61;58.27
43711;BME280;29309;42.682;23.372;2022-12-31T14:48:47;96378.22;;;11.58;58.51
43711;BME280;29309;42.682;23.372;2022-12-31T14:51:18;96383.41;;;11.52;58.98
43711;BME280;29309;42.682;23.372;2022-12-31T14:56:42;96385.66;;;11.44;59.41
43711;BME280;29309;42.682;23.372;2022-12-31T14:59:23;96386.00;;;11.38;59.74
43711;BME280;29309;42.682;23.372;2022-12-31T15:01:49;96388.38;;;11.32;59.73
43711;BME280;29309;42.682;23.372;2022-12-31T15:04:14;96390.00;;;11.25;59.92
43711;BME280;29309;42.682;23.372;2022-12-31T15:06:50;96391.66;;;11.19;60.03
43711;BME280;29309;42.682;23.372;2022-12-31T15:09:22;96399.63;;;11.13;60.66
43711;BME280;29309;42.682;23.372;2022-12-31T15:12:28;96395.56;;;11.04;60.93
43711;BME280;29309;42.682;23.372;2022-12-31T15:15:39;96393.22;;;11.01;61.34
43711;BME280;29309;42.682;23.372;2022-12-31T15:18:47;96394.88;;;10.94;61.55
43711;BME280;29309;42.682;23.372;2022-12-31T15:21:29;96404.25;;;10.89;60.97
43711;BME280;29309;42.682;23.372;2022-12-31T15:23:57;96399.59;;;10.82;61.59
43711;BME280;29309;42.682;23.372;2022-12-31T15:26:28;96402.84;;;10.78;61.93
43711;BME280;29309;42.682;23.372;2022-12-31T15:29:06;96410.19;;;10.74;62.77
43711;BME280;29309;42.682;23.372;2022-12-31T15:31:33;96409.91;;;10.70;63.34
43711;BME280;29309;42.682;23.372;2022-12-31T15:34:04;96408.91;;;10.65;63.36
43711;BME280;29309;42.682;23.372;2022-12-31T15:36:35;96408.03;;;10.63;63.10
43711;BME280;29309;42.682;23.372;2022-12-31T15:44:24;96422.56;;;10.32;63.97
43711;BME280;29309;42.682;23.372;2022-12-31T15:46:56;96426.69;;;10.22;64.25
43711;BME280;29309;42.682;23.372;2022-12-31T15:49:23;96426.84;;;10.14;64.07
43711;BME280;29309;42.682;23.372;2022-12-31T15:51:59;96429.00;;;10.06;64.79
43711;BME280;29309;42.682;23.372;2022-12-31T15:54:40;96435.88;;;9.96;64.56
43711;BME280;29309;42.682;23.372;2022-12-31T15:57:25;96435.91;;;9.86;64.94
43711;BME280;29309;42.682;23.372;2022-12-31T15:59:58;96442.75;;;9.75;65.50
43711;BME280;29309;42.682;23.372;2022-12-31T16:02:25;96439.56;;;9.69;65.80
43711;BME280;29309;42.682;23.372;2022-12-31T16:04:51;96433.09;;;9.67;66.22
43711;BME280;29309;42.682;23.372;2022-12-31T16:07:17;96443.03;;;9.60;66.40
43711;BME280;29309;42.682;23.372;2022-12-31T16:09:48;96441.13;;;9.53;66.49
43711;BME280;29309;42.682;23.372;2022-12-31T16:12:20;96448.41;;;9.49;66.55
43711;BME280;29309;42.682;23.372;2022-12-31T16:14:53;96449.28;;;9.42;67.01
43711;BME280;29309;42.682;23.372;2022-12-31T16:17:32;96464.16;;;9.36;66.95
43711;BME280;29309;42.682;23.372;2022-12-31T16:20:00;96470.69;;;9.31;67.41
43711;BME280;29309;42.682;23.372;2022-12-31T16:22:34;96466.88;;;9.27;67.24
43711;BME280;29309;42.682;23.372;2022-12-31T16:25:00;96468.75;;;9.15;67.34
43711;BME280;29309;42.682;23.372;2022-12-31T16:27:28;96467.56;;;9.08;67.49
43711;BME280;29309;42.682;23.372;2022-12-31T16:30:06;96472.34;;;8.98;67.52
43711;BME280;29309;42.682;23.372;2022-12-31T16:32:38;96485.31;;;8.96;67.91
43711;BME280;29309;42.682;23.372;2022-12-31T16:37:47;96495.44;;;8.83;68.14
43711;BME280;29309;42.682;23.372;2022-12-31T16:40:20;96496.28;;;8.76;67.86
43711;BME280;29309;42.682;23.372;2022-12-31T16:42:46;96502.25;;;8.73;67.69
43711;BME280;29309;42.682;23.372;2022-12-31T16:45:22;96496.56;;;8.71;67.89
43711;BME280;29309;42.682;23.372;2022-12-31T16:47:52;96506.91;;;8.70;68.36
43711;BME280;29309;42.682;23.372;2022-12-31T16:50:20;96504.56;;;8.67;68.02
43711;BME280;29309;42.682;23.372;2022-12-31T16:52:48;96505.28;;;8.67;69.19
43711;BME280;29309;42.682;23.372;2022-12-31T16:55:18;96508.19;;;8.69;67.43
43711;BME280;29309;42.682;23.372;2022-12-31T16:57:48;96509.75;;;8.63;66.83
43711;BME280;29309;42.682;23.372;2022-12-31T17:00:18;96511.06;;;8.62;66.82
43711;BME280;29309;42.682;23.372;2022-12-31T17:02:49;96500.81;;;8.55;67.16
43711;BME280;29309;42.682;23.372;2022-12-31T17:05:21;96509.13;;;8.55;67.95
43711;BME280;29309;42.682;23.372;2022-12-31T17:07:47;96504.75;;;8.52;68.12
43711;BME280;29309;42.682;23.372;2022-12-31T17:10:23;96516.38;;;8.50;67.48
43711;BME280;29309;42.682;23.372;2022-12-31T17:12:55;96519.72;;;8.49;67.67
43711;BME280;29309;42.682;23.372;2022-12-31T17:15:25;96524.53;;;8.48;67.71
43711;BME280;29309;42.682;23.372;2022-12-31T17:17:56;96527.72;;;8.45;67.56
43711;BME280;29309;42.682;23.372;2022-12-31T17:20:28;96524.53;;;8.48;66.91
43711;BME280;29309;42.682;23.372;2022-12-31T17:23:06;96530.06;;;8.48;66.95
43711;BME280;29309;42.682;23.372;2022-12-31T17:25:35;96529.50;;;8.50;67.25
43711;BME280;29309;42.682;23.372;2022-12-31T17:28:06;96529.91;;;8.46;67.19
43711;BME280;29309;42.682;23.372;2022-12-31T17:30:38;96533.41;;;8.47;67.50
43711;BME280;29309;42.682;23.372;2022-12-31T17:35:37;96541.41;;;8.43;67.99
43711;BME280;29309;42.682;23.372;2022-12-31T17:43:35;96533.34;;;8.37;68.74
43711;BME280;29309;42.682;23.372;2022-12-31T17:46:10;96538.88;;;8.37;68.64
43711;BME280;29309;42.682;23.372;2022-12-31T17:48:36;96528.53;;;8.37;68.82